createdAt,value
2018-06-13T00:01:54.896Z,9.50
2018-06-13T00:04:22.925Z,9.13
2018-06-13T00:06:50.976Z,9.17
2018-06-13T00:09:19.044Z,8.80
2018-06-13T00:11:47.005Z,9.90
2018-06-13T00:14:14.933Z,7.63
2018-06-13T00:16:42.893Z,7.93
2018-06-13T00:19:10.821Z,8.43
2018-06-13T00:21:38.725Z,7.40
2018-06-13T00:24:06.801Z,5.90
2018-06-13T00:26:34.870Z,4.93
2018-06-13T00:29:02.908Z,3.87
2018-06-13T00:31:31.183Z,5.60
2018-06-13T00:33:59.417Z,4.50
2018-06-13T00:36:28.077Z,6.30
2018-06-13T00:38:56.056Z,5.00
2018-06-13T00:41:24.057Z,5.40
2018-06-13T00:43:52.025Z,5.40
2018-06-13T00:46:20.051Z,5.80
2018-06-13T00:48:48.086Z,5.57
2018-06-13T00:51:16.008Z,4.73
2018-06-13T00:53:43.907Z,5.60
2018-06-13T00:56:17.564Z,5.70
2018-06-13T00:58:45.484Z,4.00
2018-06-13T01:01:13.401Z,3.80
2018-06-13T01:03:41.324Z,10.00
2018-06-13T01:06:09.241Z,3.90
2018-06-13T01:08:37.553Z,4.70
2018-06-13T01:11:05.718Z,3.10
2018-06-13T01:13:33.888Z,3.60
2018-06-13T01:16:02.070Z,3.57
2018-06-13T01:18:30.440Z,4.97
2018-06-13T01:20:58.588Z,4.00
2018-06-13T01:23:26.776Z,4.30
2018-06-13T01:25:54.681Z,5.67
2018-06-13T01:28:22.702Z,5.47
2018-06-13T01:30:50.853Z,6.07
2018-06-13T01:33:19.006Z,6.47
2018-06-13T01:35:46.962Z,5.90
2018-06-13T01:38:14.893Z,6.50
2018-06-13T01:40:42.817Z,9.50
2018-06-13T01:43:10.773Z,8.10
2018-06-13T01:45:38.710Z,7.57
2018-06-13T01:48:06.761Z,7.90
2018-06-13T01:50:34.852Z,9.73
2018-06-13T01:53:03.048Z,9.60
2018-06-13T01:55:31.351Z,10.40
2018-06-13T01:57:59.505Z,10.07
2018-06-13T02:00:28.012Z,10.53
2018-06-13T02:02:55.959Z,11.87
2018-06-13T02:05:23.904Z,10.20
2018-06-13T02:07:51.940Z,11.00
2018-06-13T02:10:20.162Z,11.10
2018-06-13T02:12:48.245Z,9.53
2018-06-13T02:15:16.183Z,10.37
2018-06-13T02:17:44.125Z,11.30
2018-06-13T02:20:12.097Z,12.07
2018-06-13T02:22:40.030Z,13.20
2018-06-13T02:25:07.981Z,11.83
2018-06-13T02:27:35.994Z,14.40
2018-06-13T02:30:04.060Z,15.10
2018-06-13T02:32:32.458Z,15.13
2018-06-13T02:35:00.769Z,17.50
2018-06-13T02:37:29.173Z,16.40
2018-06-13T02:39:57.311Z,17.40
2018-06-13T02:42:25.245Z,16.77
2018-06-13T02:44:53.449Z,16.30
2018-06-13T02:47:21.557Z,14.60
2018-06-13T02:49:49.842Z,13.60
2018-06-13T02:52:17.865Z,14.07
2018-06-13T02:54:45.809Z,12.77
2018-06-13T02:57:13.790Z,12.10
2018-06-13T02:59:41.830Z,13.30
2018-06-13T03:02:09.746Z,14.13
2018-06-13T03:04:37.680Z,14.13
2018-06-13T03:07:06.071Z,13.50
2018-06-13T03:09:34.118Z,13.80
2018-06-13T03:12:02.343Z,13.10
2018-06-13T03:14:30.645Z,14.90
2018-06-13T03:16:58.878Z,14.43
2018-06-13T03:19:26.889Z,15.80
2018-06-13T03:21:54.856Z,15.60
2018-06-13T03:24:22.849Z,17.43
2018-06-13T03:26:50.950Z,17.20
2018-06-13T03:29:19.061Z,17.27
2018-06-13T03:31:47.062Z,19.13
2018-06-13T03:34:15.015Z,17.77
2018-06-13T03:36:42.926Z,17.97
2018-06-13T03:39:10.865Z,18.87
2018-06-13T03:41:38.777Z,18.87
2018-06-13T03:44:06.732Z,18.20
2018-06-13T03:46:34.829Z,19.70
2018-06-13T03:49:03.124Z,17.83
2018-06-13T03:51:31.642Z,20.77
2018-06-13T03:53:59.808Z,18.73
2018-06-13T03:56:28.091Z,18.67
2018-06-13T03:58:56.032Z,19.63
2018-06-13T04:01:23.997Z,19.30
2018-06-13T04:03:52.285Z,17.97
2018-06-13T04:06:20.689Z,18.60
2018-06-13T04:08:48.993Z,19.90
2018-06-13T04:11:16.922Z,20.90
2018-06-13T04:13:44.956Z,21.83
2018-06-13T04:16:12.814Z,24.83
2018-06-13T04:18:40.732Z,25.73
2018-06-13T04:21:08.685Z,27.80
2018-06-13T04:23:36.624Z,29.30
2018-06-13T04:26:04.674Z,31.93
2018-06-13T04:28:33.068Z,30.97
2018-06-13T04:31:01.293Z,31.47
2018-06-13T04:33:29.634Z,34.13
2018-06-13T04:35:57.783Z,33.77
2018-06-13T04:38:25.714Z,36.77
2018-06-13T04:40:53.654Z,38.00
2018-06-13T04:43:21.753Z,36.20
2018-06-13T04:45:49.874Z,37.33
2018-06-13T04:48:17.866Z,36.20
2018-06-13T04:50:45.789Z,34.90
2018-06-13T04:53:13.733Z,32.03
2018-06-13T04:55:42.765Z,34.80
2018-06-13T04:58:11.550Z,29.73
2018-06-13T05:00:40.290Z,29.80
2018-06-13T05:03:08.290Z,29.30
2018-06-13T05:05:37.719Z,27.57
2018-06-13T05:08:07.246Z,30.13
2018-06-13T05:10:35.311Z,31.00
2018-06-13T05:13:03.331Z,28.80
2018-06-13T05:15:31.699Z,26.20
2018-06-13T05:17:59.962Z,25.00
2018-06-13T05:20:28.336Z,23.97
2018-06-13T05:22:56.318Z,26.30
2018-06-13T05:25:24.253Z,26.47
2018-06-13T05:27:52.530Z,24.57
2018-06-13T05:30:20.564Z,21.27
2018-06-13T05:32:48.764Z,23.80
2018-06-13T05:35:16.681Z,24.00
2018-06-13T05:37:44.613Z,18.70
2018-06-13T05:40:12.553Z,21.00
2018-06-13T05:42:40.505Z,19.90
2018-06-13T05:45:08.460Z,19.37
2018-06-13T05:47:36.489Z,19.33
2018-06-13T05:50:04.536Z,20.47
2018-06-13T05:52:32.619Z,19.77
2018-06-13T05:55:01.006Z,20.40
2018-06-13T05:57:29.340Z,18.87
2018-06-13T05:59:57.386Z,21.37
2018-06-13T06:02:25.357Z,22.37
2018-06-13T06:04:53.320Z,18.70
2018-06-13T06:07:21.385Z,19.63
2018-06-13T06:09:49.389Z,16.67
2018-06-13T06:12:17.333Z,18.43
2018-06-13T06:14:45.320Z,20.23
2018-06-13T06:17:13.306Z,20.30
2018-06-13T06:19:41.218Z,21.60
2018-06-13T06:22:09.170Z,22.70
2018-06-13T06:24:37.086Z,21.53
2018-06-13T06:27:05.124Z,24.93
2018-06-13T06:29:33.209Z,24.40
2018-06-13T06:32:01.422Z,23.40
2018-06-13T06:34:30.270Z,25.27
2018-06-13T06:36:58.546Z,27.17
2018-06-13T06:39:26.484Z,26.77
2018-06-13T06:41:54.438Z,27.70
2018-06-13T06:44:22.552Z,27.67
2018-06-13T06:46:50.540Z,28.80
2018-06-13T06:49:18.586Z,24.27
2018-06-13T06:51:46.624Z,22.07
2018-06-13T06:54:14.534Z,22.07
2018-06-13T06:56:42.438Z,21.03
2018-06-13T06:59:10.387Z,20.80
2018-06-13T07:01:38.325Z,20.40
2018-06-13T07:04:06.461Z,20.77
2018-06-13T07:06:34.577Z,19.87
2018-06-13T07:09:02.748Z,19.50
2018-06-13T07:11:30.986Z,20.10
2018-06-13T07:13:59.316Z,18.10
2018-06-13T07:16:27.521Z,17.40
2018-06-13T07:18:55.635Z,16.67
2018-06-13T07:21:23.489Z,18.03
2018-06-13T07:23:54.051Z,17.30
2018-06-13T07:26:23.541Z,15.03
2018-06-13T07:28:57.052Z,15.17
2018-06-13T07:31:25.147Z,16.70
2018-06-13T07:33:53.037Z,17.20
2018-06-13T07:36:21.103Z,16.40
2018-06-13T07:38:49.243Z,16.50
2018-06-13T07:41:18.806Z,17.90
2018-06-13T07:43:47.572Z,19.90
2018-06-13T07:46:15.588Z,18.53
2018-06-13T07:48:43.524Z,22.30
2018-06-13T07:51:11.503Z,22.63
2018-06-13T07:53:39.647Z,23.57
2018-06-13T07:56:07.534Z,23.77
2018-06-13T07:58:35.584Z,25.13
2018-06-13T08:01:03.680Z,25.00
2018-06-13T08:03:31.884Z,27.17
2018-06-13T08:06:00.137Z,26.00
2018-06-13T08:08:28.387Z,27.20
2018-06-13T08:10:56.336Z,28.30
2018-06-13T08:13:25.137Z,27.63
2018-06-13T08:15:53.090Z,28.20
2018-06-13T08:18:21.185Z,29.23
2018-06-13T08:20:49.368Z,27.20
2018-06-13T08:23:17.288Z,29.50
2018-06-13T08:25:45.466Z,30.53
2018-06-13T08:28:13.409Z,29.00
2018-06-13T08:30:41.343Z,31.80
2018-06-13T08:33:09.276Z,31.70
2018-06-13T08:35:37.537Z,31.67
2018-06-13T08:38:05.759Z,34.03
2018-06-13T08:40:33.775Z,33.50
2018-06-13T08:43:02.031Z,32.00
2018-06-13T08:45:30.438Z,35.77
2018-06-13T08:47:58.704Z,35.10
2018-06-13T08:50:26.834Z,35.97
2018-06-13T08:52:54.809Z,33.57
2018-06-13T08:55:22.738Z,33.30
2018-06-13T08:57:50.874Z,35.43
2018-06-13T09:00:18.913Z,34.20
2018-06-13T09:02:46.849Z,34.23
2018-06-13T09:05:14.810Z,35.07
2018-06-13T09:07:42.742Z,36.60
2018-06-13T09:10:10.741Z,37.77
2018-06-13T09:12:38.666Z,36.63
2018-06-13T09:15:06.837Z,36.17
2018-06-13T09:17:34.916Z,35.83
2018-06-13T09:20:03.203Z,39.47
2018-06-13T09:22:31.485Z,39.37
2018-06-13T09:25:00.279Z,38.03
2018-06-13T09:27:28.676Z,38.07
2018-06-13T09:29:56.686Z,37.17
2018-06-13T09:32:24.629Z,37.87
2018-06-13T09:34:52.729Z,36.83
2018-06-13T09:37:20.928Z,38.70
2018-06-13T09:39:49.005Z,36.73
2018-06-13T09:42:16.971Z,39.07
2018-06-13T09:44:44.893Z,36.90
2018-06-13T09:47:15.138Z,35.93
2018-06-13T09:49:40.777Z,33.70
2018-06-13T09:52:08.689Z,35.67
2018-06-13T09:54:36.763Z,33.30
2018-06-13T09:57:04.930Z,34.23
2018-06-13T09:59:40.262Z,34.47
2018-06-13T10:02:14.008Z,34.83
2018-06-13T10:04:41.951Z,32.10
2018-06-13T10:07:09.928Z,35.17
2018-06-13T10:09:37.921Z,34.50
2018-06-13T10:12:05.993Z,34.13
2018-06-13T10:14:34.065Z,31.13
2018-06-13T10:17:02.266Z,34.23
2018-06-13T10:19:30.660Z,34.60
2018-06-13T10:21:58.862Z,34.10
2018-06-13T10:24:27.349Z,34.17
2018-06-13T10:26:55.306Z,34.77
2018-06-13T10:29:23.323Z,32.50
2018-06-13T10:31:51.513Z,33.77
2018-06-13T10:34:19.655Z,32.17
2018-06-13T10:36:47.612Z,34.67
2018-06-13T10:39:15.521Z,32.53
2018-06-13T10:41:43.473Z,31.60
2018-06-13T10:44:11.401Z,33.00
2018-06-13T10:46:39.365Z,31.73
2018-06-13T10:49:07.382Z,32.93
2018-06-13T10:51:35.470Z,30.63
2018-06-13T10:54:03.564Z,33.87
2018-06-13T10:56:31.905Z,33.10
2018-06-13T10:59:00.054Z,31.60
2018-06-13T11:01:28.388Z,30.13
2018-06-13T11:03:56.326Z,30.40
2018-06-13T11:06:24.244Z,29.97
2018-06-13T11:08:52.301Z,30.67
2018-06-13T11:11:20.335Z,28.47
2018-06-13T11:13:48.326Z,32.37
2018-06-13T11:16:16.240Z,28.93
2018-06-13T11:18:44.212Z,27.90
2018-06-13T11:21:12.133Z,30.60
2018-06-13T11:23:40.070Z,28.90
2018-06-13T11:26:08.036Z,29.57
2018-06-13T11:28:36.200Z,30.63
2018-06-13T11:31:04.341Z,28.27
2018-06-13T11:33:32.546Z,30.13
2018-06-13T11:36:00.832Z,27.40
2018-06-13T11:38:29.074Z,28.90
2018-06-13T11:40:57.123Z,27.83
2018-06-13T11:43:25.274Z,29.50
2018-06-13T11:45:53.524Z,28.00
2018-06-13T11:48:21.665Z,27.40
2018-06-13T11:50:49.778Z,27.47
2018-06-13T11:53:17.793Z,27.53
2018-06-13T11:55:45.717Z,25.50
2018-06-13T11:58:13.781Z,25.77
2018-06-13T12:00:41.714Z,27.20
2018-06-13T12:03:09.648Z,23.43
2018-06-13T12:05:37.610Z,27.47
2018-06-13T12:08:05.797Z,23.90
2018-06-13T12:10:33.863Z,24.37
2018-06-13T12:13:02.143Z,26.40
2018-06-13T12:15:30.946Z,27.77
2018-06-13T12:17:59.631Z,25.87
2018-06-13T12:20:29.120Z,27.83
2018-06-13T12:22:57.105Z,27.57
2018-06-13T12:25:25.092Z,22.07
2018-06-13T12:27:53.498Z,24.93
2018-06-13T12:30:21.599Z,22.07
2018-06-13T12:32:49.709Z,23.77
2018-06-13T12:35:17.674Z,22.63
2018-06-13T12:37:45.610Z,24.23
2018-06-13T12:40:13.524Z,26.50
2018-06-13T12:42:41.452Z,25.77
2018-06-13T12:45:09.375Z,22.70
2018-06-13T12:47:37.357Z,22.60
2018-06-13T12:50:05.395Z,25.00
2018-06-13T12:52:33.543Z,24.80
2018-06-13T12:55:01.864Z,22.00
2018-06-13T12:57:30.202Z,21.07
2018-06-13T12:59:58.600Z,22.80
2018-06-13T13:02:26.636Z,22.30
2018-06-13T13:04:54.637Z,23.30
2018-06-13T13:07:22.681Z,23.47
2018-06-13T13:09:50.851Z,23.57
2018-06-13T13:12:18.982Z,24.47
2018-06-13T13:14:46.906Z,27.07
2018-06-13T13:17:14.832Z,24.57
2018-06-13T13:19:42.737Z,29.17
2018-06-13T13:22:10.664Z,25.97
2018-06-13T13:24:38.588Z,26.43
2018-06-13T13:27:06.574Z,23.90
2018-06-13T13:29:34.694Z,24.27
2018-06-13T13:32:03.001Z,23.00
2018-06-13T13:34:31.314Z,25.03
2018-06-13T13:37:00.915Z,27.17
2018-06-13T13:39:29.326Z,33.13
2018-06-13T13:41:57.430Z,32.10
2018-06-13T13:44:25.405Z,29.47
2018-06-13T13:46:53.565Z,26.23
2018-06-13T13:49:21.680Z,28.43
2018-06-13T13:51:49.655Z,27.00
2018-06-13T13:54:17.692Z,27.20
2018-06-13T13:56:45.558Z,22.80
2018-06-13T13:59:13.496Z,29.90
2018-06-13T14:01:41.439Z,27.27
2018-06-13T14:04:09.421Z,20.53
2018-06-13T14:06:37.333Z,36.93
2018-06-13T14:09:06.773Z,26.00
2018-06-13T14:11:34.857Z,31.23
2018-06-13T14:14:02.985Z,26.40
2018-06-13T14:16:31.270Z,26.60
2018-06-13T14:18:59.688Z,27.03
2018-06-13T14:21:28.346Z,25.30
2018-06-13T14:23:56.312Z,20.90
2018-06-13T14:26:24.237Z,23.63
2018-06-13T14:28:52.302Z,23.20
2018-06-13T14:31:20.469Z,26.73
2018-06-13T14:33:48.461Z,22.80
2018-06-13T14:36:16.387Z,22.53
2018-06-13T14:38:44.329Z,19.13
2018-06-13T14:41:12.252Z,24.27
2018-06-13T14:43:40.197Z,20.10
2018-06-13T14:46:08.129Z,22.83
2018-06-13T14:48:36.201Z,22.07
2018-06-13T14:51:04.445Z,22.60
2018-06-13T14:53:32.770Z,22.43
2018-06-13T14:56:06.065Z,20.10
2018-06-13T14:58:34.248Z,22.60
2018-06-13T15:01:02.520Z,22.80
2018-06-13T15:03:31.019Z,19.87
2018-06-13T15:05:59.462Z,21.70
2018-06-13T15:08:27.680Z,23.20
2018-06-13T15:10:55.645Z,19.47
2018-06-13T15:13:23.811Z,21.40
2018-06-13T15:15:51.775Z,18.90
2018-06-13T15:18:19.833Z,17.20
2018-06-13T15:20:47.817Z,18.50
2018-06-13T15:23:15.797Z,17.57
2018-06-13T15:25:43.692Z,18.80
2018-06-13T15:28:11.757Z,17.13
2018-06-13T15:30:39.668Z,17.07
2018-06-13T15:33:07.657Z,18.97
2018-06-13T15:35:35.949Z,19.60
2018-06-13T15:38:04.141Z,19.13
2018-06-13T15:40:32.266Z,17.90
2018-06-13T15:43:00.685Z,18.47
2018-06-13T15:45:29.079Z,16.80
2018-06-13T15:47:57.953Z,19.10
2018-06-13T15:50:25.919Z,17.67
2018-06-13T15:52:54.924Z,18.00
2018-06-13T15:55:22.913Z,17.60
2018-06-13T15:57:50.994Z,18.30
2018-06-13T16:00:19.088Z,16.50
2018-06-13T16:02:47.040Z,18.90
2018-06-13T16:05:14.985Z,18.00
2018-06-13T16:07:42.991Z,17.53
2018-06-13T16:10:10.973Z,16.00
2018-06-13T16:12:38.914Z,17.23
2018-06-13T16:15:06.857Z,18.10
2018-06-13T16:17:34.878Z,18.87
2018-06-13T16:20:03.020Z,17.80
2018-06-13T16:22:31.273Z,20.30
2018-06-13T16:24:59.549Z,17.80
2018-06-13T16:27:27.686Z,18.33
2018-06-13T16:29:55.637Z,16.83
2018-06-13T16:32:23.599Z,19.33
2018-06-13T16:34:51.573Z,16.97
2018-06-13T16:37:19.602Z,16.40
2018-06-13T16:39:47.560Z,15.80
2018-06-13T16:42:15.518Z,17.77
2018-06-13T16:44:43.457Z,19.00
2018-06-13T16:47:11.586Z,15.93
2018-06-13T16:49:39.569Z,14.53
2018-06-13T16:52:13.009Z,14.97
2018-06-13T16:54:46.520Z,17.00
2018-06-13T16:57:14.481Z,15.37
2018-06-13T16:59:42.406Z,17.03
2018-06-13T17:02:10.730Z,15.03
2018-06-13T17:04:38.936Z,14.80
2018-06-13T17:07:07.014Z,14.93
2018-06-13T17:09:35.109Z,15.63
2018-06-13T17:12:03.209Z,15.43
2018-06-13T17:14:31.461Z,15.60
2018-06-13T17:16:59.571Z,14.93
2018-06-13T17:19:27.677Z,16.70
2018-06-13T17:21:56.143Z,13.87
2018-06-13T17:24:24.081Z,14.97
2018-06-13T17:26:52.104Z,14.27
2018-06-13T17:29:20.149Z,15.30
2018-06-13T17:31:48.168Z,14.40
2018-06-13T17:34:16.151Z,16.57
2018-06-13T17:36:44.072Z,16.63
2018-06-13T17:39:12.004Z,16.10
2018-06-13T17:41:40.021Z,15.97
2018-06-13T17:44:08.661Z,15.90
2018-06-13T17:46:36.658Z,14.97
2018-06-13T17:49:04.731Z,15.17
2018-06-13T17:51:32.840Z,16.50
2018-06-13T17:54:01.048Z,14.80
2018-06-13T17:56:29.157Z,15.57
2018-06-13T17:58:57.143Z,14.40
2018-06-13T18:01:25.078Z,14.93
2018-06-13T18:03:53.085Z,14.47
2018-06-13T18:06:21.118Z,12.90
2018-06-13T18:08:49.147Z,13.70
2018-06-13T18:11:17.081Z,13.93
2018-06-13T18:13:45.025Z,13.57
2018-06-13T18:16:12.997Z,15.03
2018-06-13T18:18:40.986Z,14.43
2018-06-13T18:21:09.753Z,13.20
2018-06-13T18:23:37.697Z,17.67
2018-06-13T18:26:05.768Z,15.90
2018-06-13T18:28:33.807Z,14.47
2018-06-13T18:31:02.121Z,17.60
2018-06-13T18:33:30.489Z,15.30
2018-06-13T18:35:58.667Z,15.00
2018-06-13T18:38:26.613Z,14.43
2018-06-13T18:40:54.725Z,14.70
2018-06-13T18:43:22.817Z,14.20
2018-06-13T18:45:50.918Z,14.57
2018-06-13T18:48:18.833Z,15.47
2018-06-13T18:50:46.764Z,15.70
2018-06-13T18:53:14.716Z,12.40
2018-06-13T18:55:42.625Z,13.53
2018-06-13T18:58:11.445Z,12.90
2018-06-13T19:00:39.364Z,12.90
2018-06-13T19:03:07.309Z,12.90
2018-06-13T19:05:35.361Z,13.63
2018-06-13T19:08:03.393Z,11.67
2018-06-13T19:10:31.646Z,11.63
2018-06-13T19:12:59.834Z,13.80
2018-06-13T19:15:27.937Z,11.10
2018-06-13T19:17:55.836Z,11.53
2018-06-13T19:20:24.346Z,12.90
2018-06-13T19:22:52.377Z,13.37
2018-06-13T19:25:20.384Z,13.40
2018-06-13T19:27:48.442Z,12.17
2018-06-13T19:30:16.363Z,12.37
2018-06-13T19:32:44.304Z,12.70
2018-06-13T19:35:12.225Z,13.77
2018-06-13T19:37:40.152Z,13.13
2018-06-13T19:40:08.106Z,11.77
2018-06-13T19:42:36.205Z,10.87
2018-06-13T19:45:04.423Z,13.77
2018-06-13T19:47:37.689Z,11.80
2018-06-13T19:50:05.772Z,14.23
2018-06-13T19:52:39.341Z,13.33
2018-06-13T19:55:12.685Z,14.40
2018-06-13T19:57:40.641Z,14.20
2018-06-13T20:00:08.574Z,16.53
2018-06-13T20:02:41.886Z,12.00
2018-06-13T20:05:15.237Z,12.60
2018-06-13T20:07:43.206Z,12.90
2018-06-13T20:10:11.150Z,13.93
2018-06-13T20:12:44.534Z,14.50
2018-06-13T20:15:17.841Z,14.10
2018-06-13T20:17:51.315Z,13.20
2018-06-13T20:20:19.336Z,14.77
2018-06-13T20:22:48.365Z,15.30
2018-06-13T20:25:21.695Z,11.63
2018-06-13T20:27:55.177Z,10.97
2018-06-13T20:31:28.998Z,10.93
2018-06-13T20:33:57.206Z,11.17
2018-06-13T20:36:25.924Z,11.60
2018-06-13T20:38:54.662Z,12.90
2018-06-13T20:41:23.014Z,14.40
2018-06-13T20:43:51.276Z,12.10
2018-06-13T20:46:19.357Z,14.10
2018-06-13T20:48:47.659Z,12.60
2018-06-13T20:51:15.729Z,11.57
2018-06-13T20:53:44.769Z,14.20
2018-06-13T20:56:13.442Z,11.60
2018-06-13T20:58:41.544Z,11.63
2018-06-13T21:01:10.066Z,13.53
2018-06-13T21:03:38.543Z,11.43
2018-06-13T21:06:06.907Z,13.97
2018-06-13T21:08:35.789Z,13.57
2018-06-13T21:11:03.933Z,14.43
2018-06-13T21:13:33.117Z,11.70
2018-06-13T21:16:01.759Z,14.57
2018-06-13T21:18:30.215Z,16.73
2018-06-13T21:20:59.078Z,13.83
2018-06-13T21:23:27.745Z,15.20
2018-06-13T21:25:56.023Z,14.10
2018-06-13T21:28:24.404Z,12.87
2018-06-13T21:30:52.473Z,12.77
2018-06-13T21:33:20.501Z,11.90
2018-06-13T21:35:48.480Z,12.67
2018-06-13T21:38:16.509Z,12.83
2018-06-13T21:40:44.494Z,12.63
2018-06-13T21:43:12.852Z,12.13
2018-06-13T21:45:40.951Z,12.80
2018-06-13T21:48:09.251Z,11.77
2018-06-13T21:50:37.298Z,11.03
2018-06-13T21:53:07.011Z,12.63
2018-06-13T21:55:36.151Z,12.50
2018-06-13T21:58:04.651Z,12.13
2018-06-13T22:00:34.481Z,11.63
2018-06-13T22:03:05.765Z,12.00
2018-06-13T22:05:35.329Z,9.40
2018-06-13T22:08:04.463Z,11.07
2018-06-13T22:10:33.910Z,9.83
2018-06-13T22:13:02.314Z,9.83
2018-06-13T22:15:32.022Z,9.30
2018-06-13T22:18:02.309Z,11.50
2018-06-13T22:20:35.101Z,10.80
2018-06-13T22:23:03.330Z,11.30
2018-06-13T22:25:31.728Z,10.27
2018-06-13T22:28:00.249Z,10.40
2018-06-13T22:30:28.597Z,9.00
2018-06-13T22:32:56.629Z,10.37
2018-06-13T22:35:24.594Z,10.63
2018-06-13T22:37:52.789Z,9.50
2018-06-13T22:40:21.021Z,11.43
2018-06-13T22:42:49.357Z,10.23
2018-06-13T22:45:17.400Z,10.70
2018-06-13T22:47:45.409Z,11.70
2018-06-13T22:50:13.387Z,11.80
2018-06-13T22:52:41.334Z,11.47
2018-06-13T22:55:09.330Z,9.93
2018-06-13T22:57:37.803Z,12.47
2018-06-13T23:00:06.037Z,12.57
2018-06-13T23:02:34.265Z,11.37
2018-06-13T23:05:02.477Z,12.00
2018-06-13T23:07:30.904Z,10.50
2018-06-13T23:09:59.470Z,10.80
2018-06-13T23:12:27.668Z,11.00
2018-06-13T23:14:55.756Z,10.63
2018-06-13T23:17:23.742Z,9.73
2018-06-13T23:19:52.413Z,14.53
2018-06-13T23:22:20.575Z,18.70
2018-06-13T23:24:48.646Z,21.77
2018-06-13T23:27:16.724Z,13.90
2018-06-13T23:29:44.721Z,13.70
2018-06-13T23:32:12.665Z,14.03
2018-06-13T23:34:40.677Z,15.33
2018-06-13T23:37:08.629Z,11.43
2018-06-13T23:39:36.694Z,12.33
2018-06-13T23:42:05.082Z,12.10
2018-06-13T23:44:33.326Z,11.10
2018-06-13T23:47:01.657Z,10.50
2018-06-13T23:49:30.676Z,11.20
2018-06-13T23:51:59.134Z,8.93
2018-06-13T23:54:27.433Z,12.30
2018-06-13T23:56:55.449Z,10.83
2018-06-13T23:59:23.640Z,9.83
